Toyo — JD2815 — position and weather

sailwx.info

Track history (hours):
 
Tides and Currents Weather Stations Pressure Air Temp Water Temp Dewpoint Dewpoint Depression Visibility Wind Speed Wind Dir Waves Ship Positions

Toyo

Last reported at 2018-Jun-24 05:53 UTC. Time now 2018-Jun-24 22:34 UTC.
Position N 34°28' E 134°30'.

Length 28 m.

MMSI: 431000747.

Date/timePositionNaut miles runAvg speedWind from/ knotsBaromVisibWave heightAir tempDewpointWater temp
2018-Jun-24 05:53N 34°28' E 134°30'613.6
2018-Jun-24 05:27N 34°30' E 134°37'614.4
2018-Jun-24 05:01N 34°33' E 134°44'713.2
2018-Jun-24 04:30N 34°35' E 134°51'612.2
2018-Jun-24 04:00N 34°37' E 134°58'4 7.7
2018-Jun-24 03:29N 34°36' E 135°03'4 7.9
2018-Jun-24 03:00N 34°35' E 135°07'3 6.6
2018-Jun-24 02:30N 34°37' E 135°10'4 8.3
2018-Jun-24 02:01N 34°41' E 135°12'  
2018-Jun-21 04:36N 34°41' E 135°12'0 0.6
2018-Jun-21 04:30N 34°41' E 135°12'2 3.7
2018-Jun-21 04:01N 34°40' E 135°11'712.7
2018-Jun-21 03:27N 34°36' E 135°04'5 3.8
2018-Jun-21 02:12N 34°37' E 134°58'4 9.6
2018-Jun-21 01:47N 34°37' E 135°03'0 0.3
2018-Jun-21 01:29N 34°38' E 135°03'0 0.1
2018-Jun-21 00:41N 34°38' E 135°03'0 0.0
2018-Jun-21 00:29N 34°38' E 135°03'0 0.0
2018-Jun-20 23:59N 34°38' E 135°03'0 0.0
2018-Jun-20 22:53N 34°38' E 135°03'0 0.0
2018-Jun-20 22:11N 34°38' E 135°03'0 0.1
2018-Jun-20 21:24N 34°38' E 135°03'2 4.9
2018-Jun-20 21:00N 34°36' E 135°03'611.8
2018-Jun-20 20:29N 34°36' E 134°56'714.8
2018-Jun-20 20:00N 34°36' E 135°04'714.6
2018-Jun-20 19:30N 34°40' E 135°12'1 2.4
2018-Jun-20 19:00N 34°41' E 135°12'0 0.0
2018-Jun-20 05:44N 34°41' E 135°12'0 0.0
2018-Jun-20 05:30N 34°41' E 135°12'2 3.2
2018-Jun-20 05:00N 34°40' E 135°11'0 0.1
2018-Jun-20 04:30N 34°40' E 135°11'4 7.8
2018-Jun-20 04:00N 34°39' E 135°15'2 4.6
2018-Jun-20 03:31N 34°40' E 135°17'0 0.0
2018-Jun-20 02:58N 34°40' E 135°17'0 0.0
2018-Jun-20 02:31N 34°40' E 135°17'0 0.3
2018-Jun-20 02:00N 34°40' E 135°18'0 0.2
2018-Jun-20 01:30N 34°40' E 135°18'0 0.1
2018-Jun-20 01:00N 34°40' E 135°18'0 0.2
2018-Jun-20 00:30N 34°40' E 135°18'0 0.1
2018-Jun-19 23:59N 34°40' E 135°18'0 0.6
2018-Jun-19 23:30N 34°40' E 135°18'0 0.1
2018-Jun-19 23:00N 34°40' E 135°18'0 0.3
2018-Jun-19 22:31N 34°40' E 135°18'0 0.3
2018-Jun-19 22:00N 34°40' E 135°17'0 0.3
2018-Jun-19 21:31N 34°40' E 135°18'0 0.7
2018-Jun-19 21:00N 34°40' E 135°18'5 8.4
2018-Jun-19 20:28N 34°41' E 135°12'0 0.0
2018-Jun-19 19:59N 34°41' E 135°12'0 0.0
2018-Jun-19 19:28N 34°41' E 135°12'4 9.1
2018-Jun-19 19:01N 34°38' E 135°09'714.5
2018-Jun-19 18:31N 34°37' E 135°01'2 2.8
2018-Jun-19 17:56N 34°37' E 135°03'3 7.7
2018-Jun-19 17:30N 34°35' E 135°06'4 7.1
2018-Jun-19 17:00N 34°37' E 135°10'4 8.7
2018-Jun-19 16:30N 34°41' E 135°12'0 0.0
2018-Jun-18 06:33N 34°41' E 135°12'0 0.0
2018-Jun-18 06:30N 34°41' E 135°12'0 0.0
2018-Jun-17 18:58N 34°41' E 135°12'4 8.0
2018-Jun-17 18:30N 34°38' E 135°10'4 7.9
2018-Jun-17 18:00N 34°36' E 135°06'3 5.5
2018-Jun-17 17:31N 34°35' E 135°10'611.4
2018-Jun-17 17:00N 34°41' E 135°12'1 1.2
2018-Jun-17 16:30N 34°41' E 135°12'0 0.0
2018-Jun-17 05:11N 34°41' E 135°12'1 4.6
2018-Jun-17 05:00N 34°40' E 135°12'815.3
2018-Jun-17 04:30N 34°36' E 135°04'1016.6
2018-Jun-17 03:54N 34°35' E 134°52'716.0
2018-Jun-17 03:28N 34°32' E 134°44'1016.4
2018-Jun-17 02:51N 34°28' E 134°33'9 0.5
2018-Jun-16 08:23N 34°26' E 134°22'714.3
2018-Jun-16 07:54N 34°28' E 134°30'614.8
2018-Jun-16 07:30N 34°30' E 134°37'814.6
2018-Jun-16 06:57N 34°33' E 134°46'813.6
2018-Jun-16 06:21N 34°36' E 134°55'611.8
2018-Jun-16 05:51N 34°38' E 135°02'412.0
2018-Jun-16 05:30N 34°37' E 135°07'611.1
2018-Jun-16 05:00N 34°41' E 135°12'0 0.0
2018-Jun-14 07:36N 34°41' E 135°12'0 2.0
2018-Jun-14 07:30N 34°41' E 135°12'815.2
2018-Jun-14 07:00N 34°34' E 135°10'815.6
2018-Jun-14 06:30N 34°27' E 135°05'816.1
2018-Jun-14 06:00N 34°20' E 135°01'  
Track history (hours):
 
Tides and Currents Weather Stations Pressure Air Temp Water Temp Dewpoint Dewpoint Depression Visibility Wind Speed Wind Dir Waves Ship Positions

Toyo

Last reported at 2018-Jun-24 05:53 UTC. Time now 2018-Jun-24 22:34 UTC.
Position N 34°28' E 134°30'.

Length 28 m.

MMSI: 431000747.

Date/timePositionNaut miles runAvg speedWind from/ knotsBaromVisibWave heightAir tempDewpointWater temp
2018-Jun-24 05:53N 34°28' E 134°30'613.6
2018-Jun-24 05:27N 34°30' E 134°37'614.4
2018-Jun-24 05:01N 34°33' E 134°44'713.2
2018-Jun-24 04:30N 34°35' E 134°51'612.2
2018-Jun-24 04:00N 34°37' E 134°58'4 7.7
2018-Jun-24 03:29N 34°36' E 135°03'4 7.9
2018-Jun-24 03:00N 34°35' E 135°07'3 6.6
2018-Jun-24 02:30N 34°37' E 135°10'4 8.3
2018-Jun-24 02:01N 34°41' E 135°12'  
2018-Jun-21 04:36N 34°41' E 135°12'0 0.6
2018-Jun-21 04:30N 34°41' E 135°12'2 3.7
2018-Jun-21 04:01N 34°40' E 135°11'712.7
2018-Jun-21 03:27N 34°36' E 135°04'5 3.8
2018-Jun-21 02:12N 34°37' E 134°58'4 9.6
2018-Jun-21 01:47N 34°37' E 135°03'0 0.3
2018-Jun-21 01:29N 34°38' E 135°03'0 0.1
2018-Jun-21 00:41N 34°38' E 135°03'0 0.0
2018-Jun-21 00:29N 34°38' E 135°03'0 0.0
2018-Jun-20 23:59N 34°38' E 135°03'0 0.0
2018-Jun-20 22:53N 34°38' E 135°03'0 0.0
2018-Jun-20 22:11N 34°38' E 135°03'0 0.1
2018-Jun-20 21:24N 34°38' E 135°03'2 4.9
2018-Jun-20 21:00N 34°36' E 135°03'611.8
2018-Jun-20 20:29N 34°36' E 134°56'714.8
2018-Jun-20 20:00N 34°36' E 135°04'714.6
2018-Jun-20 19:30N 34°40' E 135°12'1 2.4
2018-Jun-20 19:00N 34°41' E 135°12'0 0.0
2018-Jun-20 05:44N 34°41' E 135°12'0 0.0
2018-Jun-20 05:30N 34°41' E 135°12'2 3.2
2018-Jun-20 05:00N 34°40' E 135°11'0 0.1
2018-Jun-20 04:30N 34°40' E 135°11'4 7.8
2018-Jun-20 04:00N 34°39' E 135°15'2 4.6
2018-Jun-20 03:31N 34°40' E 135°17'0 0.0
2018-Jun-20 02:58N 34°40' E 135°17'0 0.0
2018-Jun-20 02:31N 34°40' E 135°17'0 0.3
2018-Jun-20 02:00N 34°40' E 135°18'0 0.2
2018-Jun-20 01:30N 34°40' E 135°18'0 0.1
2018-Jun-20 01:00N 34°40' E 135°18'0 0.2
2018-Jun-20 00:30N 34°40' E 135°18'0 0.1
2018-Jun-19 23:59N 34°40' E 135°18'0 0.6
2018-Jun-19 23:30N 34°40' E 135°18'0 0.1
2018-Jun-19 23:00N 34°40' E 135°18'0 0.3
2018-Jun-19 22:31N 34°40' E 135°18'0 0.3
2018-Jun-19 22:00N 34°40' E 135°17'0 0.3
2018-Jun-19 21:31N 34°40' E 135°18'0 0.7
2018-Jun-19 21:00N 34°40' E 135°18'5 8.4
2018-Jun-19 20:28N 34°41' E 135°12'0 0.0
2018-Jun-19 19:59N 34°41' E 135°12'0 0.0
2018-Jun-19 19:28N 34°41' E 135°12'4 9.1
2018-Jun-19 19:01N 34°38' E 135°09'714.5
2018-Jun-19 18:31N 34°37' E 135°01'2 2.8
2018-Jun-19 17:56N 34°37' E 135°03'3 7.7
2018-Jun-19 17:30N 34°35' E 135°06'4 7.1
2018-Jun-19 17:00N 34°37' E 135°10'4 8.7
2018-Jun-19 16:30N 34°41' E 135°12'0 0.0
2018-Jun-18 06:33N 34°41' E 135°12'0 0.0
2018-Jun-18 06:30N 34°41' E 135°12'0 0.0
2018-Jun-17 18:58N 34°41' E 135°12'4 8.0
2018-Jun-17 18:30N 34°38' E 135°10'4 7.9
2018-Jun-17 18:00N 34°36' E 135°06'3 5.5
2018-Jun-17 17:31N 34°35' E 135°10'611.4
2018-Jun-17 17:00N 34°41' E 135°12'1 1.2
2018-Jun-17 16:30N 34°41' E 135°12'0 0.0
2018-Jun-17 05:11N 34°41' E 135°12'1 4.6
2018-Jun-17 05:00N 34°40' E 135°12'815.3
2018-Jun-17 04:30N 34°36' E 135°04'1016.6
2018-Jun-17 03:54N 34°35' E 134°52'716.0
2018-Jun-17 03:28N 34°32' E 134°44'1016.4
2018-Jun-17 02:51N 34°28' E 134°33'9 0.5
2018-Jun-16 08:23N 34°26' E 134°22'714.3
2018-Jun-16 07:54N 34°28' E 134°30'614.8
2018-Jun-16 07:30N 34°30' E 134°37'814.6
2018-Jun-16 06:57N 34°33' E 134°46'813.6
2018-Jun-16 06:21N 34°36' E 134°55'611.8
2018-Jun-16 05:51N 34°38' E 135°02'412.0
2018-Jun-16 05:30N 34°37' E 135°07'611.1
2018-Jun-16 05:00N 34°41' E 135°12'0 0.0
2018-Jun-14 07:36N 34°41' E 135°12'0 2.0
2018-Jun-14 07:30N 34°41' E 135°12'815.2
2018-Jun-14 07:00N 34°34' E 135°10'815.6
2018-Jun-14 06:30N 34°27' E 135°05'816.1
2018-Jun-14 06:00N 34°20' E 135°01'  

Dump ship's entire track history